Time;durP1;ratioP1;P1;durP2;ratioP2;P2;SDS_P1;SDS_P2;PMS_P1;PMS_P2;Temp;Humidity;BMP_temperature;BMP_pressure;BME280_temperature;BME280_humidity;BME280_pressure;Samples;Min_cycle;Max_cycle;Signal;HPM_P1;HPM_P2
2022/07/30 00:02:10;;;;;;;8.10;7.07;;;18.40;79.60;;;;;;5050138;28;20481;-49
2022/07/30 00:04:37;;;;;;;27.03;8.27;;;18.40;79.00;;;;;;5039934;28;20971;-48
2022/07/30 00:07:05;;;;;;;16.27;7.30;;;18.40;79.00;;;;;;5050538;28;20888;-49
2022/07/30 00:09:31;;;;;;;12.17;6.60;;;18.30;78.60;;;;;;5048398;28;20487;-49
2022/07/30 00:11:58;;;;;;;10.07;6.43;;;18.10;79.50;;;;;;5049338;28;20911;-49
2022/07/30 00:14:25;;;;;;;8.80;6.23;;;18.10;79.30;;;;;;5056867;28;21014;-48
2022/07/30 00:16:51;;;;;;;14.73;6.30;;;17.80;80.00;;;;;;5056071;28;21122;-48
2022/07/30 00:19:18;;;;;;;11.13;6.80;;;17.60;81.30;;;;;;5044211;28;20473;-48
2022/07/30 00:21:45;;;;;;;10.70;7.20;;;17.50;82.30;;;;;;5074565;28;20560;-48
2022/07/30 00:24:13;;;;;;;10.63;7.67;;;17.30;84.10;;;;;;5045895;28;20484;-48
2022/07/30 00:26:40;;;;;;;9.00;7.90;;;17.00;84.70;;;;;;5047378;28;20514;-49
2022/07/30 00:29:07;;;;;;;18.30;7.50;;;17.00;85.70;;;;;;5047132;28;20486;-49
2022/07/30 00:31:33;;;;;;;8.03;7.33;;;16.90;85.50;;;;;;5048816;28;20552;-49
2022/07/30 00:34:00;;;;;;;7.37;6.63;;;16.90;83.90;;;;;;5044986;28;21238;-51
2022/07/30 00:36:27;;;;;;;8.40;6.10;;;17.00;83.20;;;;;;5049668;28;20601;-49
2022/07/30 00:38:53;;;;;;;7.57;6.37;;;17.00;82.40;;;;;;5049275;28;20490;-48
2022/07/30 00:41:21;;;;;;;7.57;6.77;;;17.00;82.70;;;;;;5049041;28;20470;-49
2022/07/30 00:43:48;;;;;;;8.40;7.50;;;16.90;82.90;;;;;;5043732;28;20856;-48
2022/07/30 00:46:15;;;;;;;10.83;6.30;;;16.90;83.30;;;;;;5047887;28;21087;-48
2022/07/30 00:48:42;;;;;;;8.97;6.97;;;16.90;82.90;;;;;;5047439;28;20540;-48
2022/07/30 00:51:08;;;;;;;12.80;6.93;;;16.90;82.20;;;;;;5046893;28;20483;-48
2022/07/30 00:53:36;;;;;;;9.00;6.10;;;16.70;83.30;;;;;;5044957;28;20536;-48
2022/07/30 00:56:03;;;;;;;6.80;6.20;;;16.60;83.60;;;;;;5048287;28;20541;-49
2022/07/30 00:58:31;;;;;;;6.30;5.63;;;16.60;84.30;;;;;;5048933;28;20475;-48
2022/07/30 01:00:58;;;;;;;17.43;6.60;;;16.70;84.60;;;;;;5046875;28;20478;-49
2022/07/30 01:03:24;;;;;;;7.53;6.80;;;16.70;82.70;;;;;;5043747;28;20479;-49
2022/07/30 01:05:51;;;;;;;8.83;6.13;;;16.70;83.30;;;;;;5046903;28;20545;-48
2022/07/30 01:08:18;;;;;;;8.77;6.87;;;16.70;83.00;;;;;;5049333;28;20980;-48
2022/07/30 01:10:45;;;;;;;7.17;6.50;;;16.70;82.80;;;;;;5047840;28;20822;-48
2022/07/30 01:13:12;;;;;;;8.10;7.20;;;16.40;84.20;;;;;;5048007;28;20548;-49
2022/07/30 01:15:41;;;;;;;7.67;6.87;;;16.40;84.40;;;;;;5045707;28;20480;-48
2022/07/30 01:18:11;;;;;;;7.67;6.97;;;16.40;84.00;;;;;;5049210;28;20940;-48
2022/07/30 01:20:44;;;;;;;9.07;7.20;;;16.40;83.30;;;;;;5062084;28;20787;-49
2022/07/30 01:23:20;;;;;;;8.40;7.60;;;16.40;83.20;;;;;;5031268;28;20479;-49
2022/07/30 01:25:55;;;;;;;8.93;8.00;;;16.40;83.50;;;;;;5004977;28;20824;-49
2022/07/30 01:28:26;;;;;;;9.27;6.67;;;16.30;83.10;;;;;;5048055;28;21040;-49
2022/07/30 01:30:55;;;;;;;7.47;6.73;;;16.20;83.30;;;;;;5046371;28;20916;-48
2022/07/30 01:33:23;;;;;;;7.33;6.73;;;16.10;84.60;;;;;;5043239;28;20504;-49
2022/07/30 01:35:52;;;;;;;7.57;6.13;;;16.00;84.80;;;;;;5045551;28;21054;-49
2022/07/30 01:38:22;;;;;;;9.07;6.80;;;15.90;84.70;;;;;;5045476;28;20485;-49
2022/07/30 01:40:52;;;;;;;8.10;7.13;;;15.90;83.70;;;;;;5049103;28;20474;-49
2022/07/30 01:43:21;;;;;;;7.77;6.97;;;15.90;84.40;;;;;;5046517;28;20994;-48
2022/07/30 01:45:49;;;;;;;11.33;7.57;;;15.90;83.60;;;;;;5046617;28;20474;-49
2022/07/30 01:48:19;;;;;;;13.07;7.57;;;15.90;83.60;;;;;;5048926;28;20517;-49
2022/07/30 01:50:49;;;;;;;8.83;7.83;;;16.00;83.60;;;;;;5048698;28;20487;-48
2022/07/30 01:53:17;;;;;;;10.77;7.63;;;15.90;84.50;;;;;;5041438;28;20479;-48
2022/07/30 01:55:46;;;;;;;7.50;6.70;;;15.60;84.40;;;;;;5069223;28;20515;-49
2022/07/30 01:58:18;;;;;;;8.00;7.20;;;15.30;85.40;;;;;;5031245;28;20542;-48
2022/07/30 02:00:47;;;;;;;9.20;7.10;;;15.20;86.50;;;;;;5035015;28;20557;-48
2022/07/30 02:03:14;;;;;;;14.53;7.47;;;15.00;88.70;;;;;;5038013;28;20484;-49
2022/07/30 02:05:44;;;;;;;8.07;7.37;;;15.00;88.30;;;;;;5034886;28;20533;-49
2022/07/30 02:08:18;;;;;;;7.53;6.83;;;15.00;88.00;;;;;;5038104;28;20877;-49
2022/07/30 02:10:48;;;;;;;8.13;7.23;;;15.10;87.50;;;;;;5034758;28;20989;-48
2022/07/30 02:13:20;;;;;;;8.63;7.30;;;15.10;85.90;;;;;;5037725;28;20495;-49
2022/07/30 02:15:52;;;;;;;10.57;7.60;;;15.10;86.50;;;;;;5037591;28;20476;-48
2022/07/30 02:18:25;;;;;;;8.60;6.77;;;15.00;85.90;;;;;;5037966;28;20476;-49
2022/07/30 02:21:00;;;;;;;9.67;7.43;;;14.90;86.60;;;;;;5038587;28;20472;-48
2022/07/30 02:23:29;;;;;;;21.30;7.83;;;14.80;88.10;;;;;;5031142;28;20892;-48
2022/07/30 02:25:58;;;;;;;8.80;7.63;;;14.80;87.80;;;;;;5056715;28;20482;-48
2022/07/30 02:28:28;;;;;;;9.27;8.33;;;14.80;88.00;;;;;;5034163;28;20479;-49
2022/07/30 02:30:59;;;;;;;11.07;9.37;;;14.60;89.00;;;;;;5033647;28;20476;-48
2022/07/30 02:33:29;;;;;;;10.20;9.20;;;14.60;90.10;;;;;;5035747;28;20780;-48
2022/07/30 02:35:56;;;;;;;11.20;9.00;;;14.50;90.80;;;;;;5036438;28;20480;-48
2022/07/30 02:38:26;;;;;;;12.07;9.67;;;14.40;91.00;;;;;;5030663;28;20518;-49
2022/07/30 02:40:55;;;;;;;14.20;10.20;;;14.40;91.10;;;;;;5030017;28;20487;-48
2022/07/30 02:43:23;;;;;;;12.43;10.27;;;;;;;;;;5044169;28;21028;-49
2022/07/30 02:45:52;;;;;;;12.03;9.23;;;14.40;91.30;;;;;;5035628;28;20471;-48
2022/07/30 02:48:22;;;;;;;10.83;9.70;;;14.30;91.40;;;;;;5043801;28;20985;-48
2022/07/30 02:50:51;;;;;;;10.17;9.10;;;14.30;91.30;;;;;;5037185;28;20484;-49
2022/07/30 02:53:19;;;;;;;21.63;9.03;;;14.40;90.50;;;;;;5035588;28;20541;-48
2022/07/30 02:55:48;;;;;;;8.33;7.20;;;14.30;90.30;;;;;;5037130;28;20476;-49
2022/07/30 02:58:18;;;;;;;9.43;7.40;;;14.40;90.00;;;;;;5039014;28;20549;-48
2022/07/30 03:00:46;;;;;;;8.73;7.87;;;14.30;89.70;;;;;;5035656;28;21054;-48
2022/07/30 03:03:16;;;;;;;10.07;9.07;;;14.20;90.10;;;;;;5034769;28;20475;-50
2022/07/30 03:05:43;;;;;;;8.97;7.27;;;14.20;90.40;;;;;;5040329;28;20841;-49
2022/07/30 03:08:11;;;;;;;10.37;8.00;;;14.20;90.30;;;;;;5040870;28;20532;-48
2022/07/30 03:10:40;;;;;;;8.20;7.40;;;14.20;90.00;;;;;;5020576;28;20510;-48
2022/07/30 03:13:09;;;;;;;14.47;8.70;;;14.20;89.90;;;;;;5048274;28;20549;-48
2022/07/30 03:15:37;;;;;;;11.27;8.00;;;14.20;89.90;;;;;;5024821;28;20498;-48
2022/07/30 03:18:06;;;;;;;12.60;8.47;;;14.20;89.90;;;;;;5052445;28;21026;-48
2022/07/30 03:20:35;;;;;;;8.70;7.80;;;14.30;89.80;;;;;;5039355;28;20578;-48
2022/07/30 03:23:04;;;;;;;12.07;8.77;;;14.30;89.30;;;;;;5035906;28;20494;-49
2022/07/30 03:25:32;;;;;;;10.43;8.30;;;14.30;89.50;;;;;;5047374;28;20504;-49
2022/07/30 03:28:02;;;;;;;10.00;7.77;;;14.30;89.50;;;;;;5041707;28;20487;-48
2022/07/30 03:30:30;;;;;;;12.27;8.73;;;14.30;89.00;;;;;;5035718;28;20938;-49
2022/07/30 03:32:57;;;;;;;11.10;7.80;;;14.30;88.70;;;;;;5040777;28;20510;-48
2022/07/30 03:35:25;;;;;;;10.57;8.97;;;14.30;88.60;;;;;;5037537;28;20472;-48
2022/07/30 03:37:53;;;;;;;13.03;7.93;;;14.30;88.50;;;;;;5041017;28;20511;-49
2022/07/30 03:40:21;;;;;;;11.30;10.27;;;14.30;88.40;;;;;;5039922;28;20814;-53
2022/07/30 03:42:49;;;;;;;10.77;8.40;;;14.40;88.30;;;;;;5038978;28;20482;-49
2022/07/30 03:45:17;;;;;;;10.77;9.10;;;14.40;88.50;;;;;;5036381;28;20498;-48
2022/07/30 03:47:45;;;;;;;9.03;8.00;;;;;;;;;;5042428;28;20472;-49
2022/07/30 03:50:12;;;;;;;10.93;8.57;;;14.30;87.70;;;;;;5039129;28;20488;-48
2022/07/30 03:52:40;;;;;;;8.53;7.50;;;14.40;88.70;;;;;;5034431;28;20962;-48
2022/07/30 03:55:10;;;;;;;11.73;8.37;;;;;;;;;;5038522;28;20973;-48
2022/07/30 03:57:37;;;;;;;10.10;7.70;;;14.30;88.10;;;;;;5039981;28;20488;-48
2022/07/30 04:00:06;;;;;;;8.73;7.93;;;14.30;88.30;;;;;;5040489;28;20524;-48
2022/07/30 04:02:41;;;;;;;9.87;8.97;;;14.20;88.60;;;;;;5056780;28;21324;-48
2022/07/30 04:05:08;;;;;;;10.43;7.80;;;14.20;88.20;;;;;;5022597;28;20486;-49
2022/07/30 04:07:35;;;;;;;14.13;8.13;;;14.20;88.10;;;;;;5036545;28;20859;-48
2022/07/30 04:10:01;;;;;;;11.93;7.87;;;14.20;88.10;;;;;;5039287;28;20475;-49
2022/07/30 04:12:29;;;;;;;12.20;9.00;;;14.20;88.40;;;;;;5039688;28;20483;-49
2022/07/30 04:14:56;;;;;;;7.67;6.90;;;14.20;88.20;;;;;;5040641;28;20540;-50
2022/07/30 04:17:29;;;;;;;12.80;8.57;;;14.30;88.00;;;;;;5040077;28;20476;-49
2022/07/30 04:20:01;;;;;;;9.43;8.13;;;14.20;88.50;;;;;;5040673;28;20521;-48
2022/07/30 04:22:32;;;;;;;12.57;8.67;;;14.20;87.00;;;;;;5029455;28;21037;-49
2022/07/30 04:25:01;;;;;;;9.10;8.20;;;14.30;87.70;;;;;;5037177;28;20480;-49
2022/07/30 04:27:30;;;;;;;9.60;8.70;;;14.20;87.50;;;;;;5039385;28;20484;-49
2022/07/30 04:29:57;;;;;;;11.20;8.10;;;14.30;87.70;;;;;;5037857;28;20528;-49
2022/07/30 04:32:24;;;;;;;13.40;8.50;;;14.30;87.50;;;;;;5039577;28;20495;-49
2022/07/30 04:34:53;;;;;;;11.20;9.20;;;14.30;87.70;;;;;;5030543;28;20501;-49
2022/07/30 04:37:21;;;;;;;9.97;7.47;;;14.40;87.80;;;;;;5050342;28;20494;-48
2022/07/30 04:39:50;;;;;;;8.80;7.50;;;14.40;87.70;;;;;;5033631;28;20483;-48
2022/07/30 04:42:17;;;;;;;8.57;7.87;;;14.40;88.50;;;;;;5038307;28;20476;-48
2022/07/30 04:44:45;;;;;;;10.97;8.23;;;14.40;88.40;;;;;;5037268;28;21071;-48
2022/07/30 04:47:11;;;;;;;9.03;8.13;;;14.40;88.50;;;;;;5041882;28;20529;-49
2022/07/30 04:49:39;;;;;;;12.70;8.70;;;14.30;88.40;;;;;;5035015;28;20483;-48
2022/07/30 04:52:08;;;;;;;10.00;8.60;;;14.30;87.60;;;;;;5037881;28;20526;-49
2022/07/30 04:54:38;;;;;;;11.17;9.80;;;14.40;89.30;;;;;;5037467;28;20568;-49
2022/07/30 04:57:06;;;;;;;15.37;10.80;;;14.40;89.10;;;;;;5039094;28;20488;-49
2022/07/30 04:59:36;;;;;;;12.40;9.90;;;14.50;88.90;;;;;;5038479;28;20977;-49
2022/07/30 05:02:05;;;;;;;9.83;8.80;;;14.50;89.50;;;;;;5038872;28;21080;-48
2022/07/30 05:04:33;;;;;;;10.90;9.80;;;14.60;89.20;;;;;;5035887;28;21015;-49
2022/07/30 05:07:01;;;;;;;10.90;9.10;;;14.60;89.80;;;;;;5039330;28;20532;-49
2022/07/30 05:09:29;;;;;;;10.47;9.23;;;14.70;89.30;;;;;;5035987;28;20544;-49
2022/07/30 05:11:58;;;;;;;10.67;8.97;;;14.80;89.50;;;;;;5038992;28;20482;-49
2022/07/30 05:14:26;;;;;;;12.37;11.07;;;14.80;90.20;;;;;;5033287;28;21295;-49
2022/07/30 05:16:54;;;;;;;18.27;10.00;;;14.80;90.40;;;;;;5035238;28;20920;-48
2022/07/30 05:19:23;;;;;;;12.10;10.37;;;14.90;90.50;;;;;;5037492;28;20491;-49
2022/07/30 05:21:51;;;;;;;12.30;9.73;;;15.00;90.70;;;;;;5038005;28;20468;-48
2022/07/30 05:24:17;;;;;;;12.47;10.13;;;15.10;90.20;;;;;;5029480;28;20542;-49
2022/07/30 05:26:44;;;;;;;10.97;9.20;;;15.30;90.00;;;;;;5033777;28;20553;-49
2022/07/30 05:29:11;;;;;;;10.50;9.23;;;15.40;90.00;;;;;;5048278;28;20573;-49
2022/07/30 05:31:39;;;;;;;13.27;9.60;;;15.60;90.50;;;;;;5038683;28;20480;-49
2022/07/30 05:34:06;;;;;;;11.90;7.70;;;15.80;90.70;;;;;;5037376;28;20514;-49
2022/07/30 05:36:34;;;;;;;13.70;10.33;;;15.80;90.90;;;;;;5038377;28;20519;-49
2022/07/30 05:39:01;;;;;;;10.70;9.60;;;15.90;91.30;;;;;;5042563;28;20471;-49
2022/07/30 05:41:28;;;;;;;12.67;9.60;;;16.00;91.10;;;;;;5033155;28;20476;-49
2022/07/30 05:43:55;;;;;;;10.57;9.50;;;16.00;90.90;;;;;;5035942;28;20472;-49
2022/07/30 05:46:22;;;;;;;19.43;10.80;;;16.10;91.30;;;;;;5036401;28;20480;-49
2022/07/30 05:48:49;;;;;;;18.00;9.77;;;16.30;91.10;;;;;;5038069;28;20487;-49
2022/07/30 05:51:17;;;;;;;11.60;9.03;;;16.40;91.20;;;;;;5038678;28;20549;-49
2022/07/30 05:53:45;;;;;;;11.07;9.50;;;16.60;91.50;;;;;;5037647;28;20484;-49
2022/07/30 05:56:12;;;;;;;11.60;9.80;;;16.60;91.70;;;;;;5038568;28;20479;-49
2022/07/30 05:58:39;;;;;;;13.10;10.27;;;16.80;91.40;;;;;;5036359;28;20756;-49
2022/07/30 06:01:05;;;;;;;12.17;9.43;;;17.00;91.70;;;;;;5039140;28;20487;-49
2022/07/30 06:03:32;;;;;;;16.73;10.90;;;17.20;91.60;;;;;;5037225;28;20902;-48
2022/07/30 06:05:59;;;;;;;12.00;10.83;;;17.30;91.60;;;;;;5037383;28;20479;-49
2022/07/30 06:08:26;;;;;;;13.90;12.00;;;17.50;90.90;;;;;;5035950;28;20949;-48
2022/07/30 06:10:54;;;;;;;12.30;11.00;;;17.60;91.30;;;;;;5038846;28;20837;-48
2022/07/30 06:13:20;;;;;;;11.17;9.93;;;18.00;90.60;;;;;;5040846;28;20488;-49
2022/07/30 06:15:47;;;;;;;15.17;10.33;;;18.10;90.60;;;;;;5037260;28;20487;-48
2022/07/30 06:18:13;;;;;;;11.40;9.33;;;18.20;90.50;;;;;;5037853;28;20545;-49
2022/07/30 06:20:40;;;;;;;9.70;8.80;;;18.50;90.50;;;;;;5037333;28;20511;-49
2022/07/30 06:23:07;;;;;;;11.97;10.67;;;18.60;90.60;;;;;;5037807;28;20480;-49
2022/07/30 06:25:34;;;;;;;17.03;11.00;;;18.60;90.90;;;;;;5032958;28;20509;-49
2022/07/30 06:28:02;;;;;;;10.37;9.40;;;18.70;91.00;;;;;;5037149;28;20529;-49
2022/07/30 06:30:28;;;;;;;17.90;12.37;;;18.90;91.00;;;;;;5036595;28;21027;-49
2022/07/30 06:32:55;;;;;;;11.40;10.30;;;19.20;91.10;;;;;;5040173;28;20557;-49
2022/07/30 06:35:22;;;;;;;12.13;10.40;;;19.20;91.30;;;;;;5035995;28;20488;-49
2022/07/30 06:37:49;;;;;;;17.77;12.23;;;19.40;90.70;;;;;;5035510;28;20490;-49
2022/07/30 06:40:15;;;;;;;15.40;11.17;;;19.50;91.20;;;;;;5039034;28;20534;-49
2022/07/30 06:42:42;;;;;;;18.67;11.40;;;19.90;90.10;;;;;;5033120;28;21053;-49
2022/07/30 06:45:11;;;;;;;19.27;10.03;;;20.00;90.70;;;;;;5040764;28;20522;-49
2022/07/30 06:47:37;;;;;;;14.20;12.13;;;20.30;88.90;;;;;;5040616;28;20479;-49
2022/07/30 06:50:05;;;;;;;13.30;10.40;;;20.30;88.70;;;;;;5042962;28;20545;-49
2022/07/30 06:52:32;;;;;;;12.37;10.77;;;20.60;88.00;;;;;;5039799;28;20838;-49
2022/07/30 06:54:59;;;;;;;13.03;10.20;;;20.90;87.20;;;;;;5038240;28;20836;-48
2022/07/30 06:57:26;;;;;;;11.60;10.40;;;21.30;86.80;;;;;;5041414;28;20484;-49
2022/07/30 06:59:52;;;;;;;14.77;10.80;;;21.50;84.40;;;;;;5040671;28;20480;-49
2022/07/30 07:02:20;;;;;;;10.30;9.20;;;21.50;84.30;;;;;;5039027;28;21008;-49
2022/07/30 07:04:47;;;;;;;16.43;10.90;;;21.70;84.00;;;;;;5043808;28;20900;-49
2022/07/30 07:07:14;;;;;;;12.17;10.27;;;21.80;83.60;;;;;;5040566;28;20520;-49
2022/07/30 07:09:41;;;;;;;9.23;8.33;;;22.10;83.00;;;;;;5040334;28;20572;-49
2022/07/30 07:12:08;;;;;;;13.43;9.00;;;22.20;82.00;;;;;;5041253;28;21065;-49
2022/07/30 07:14:34;;;;;;;12.87;9.20;;;22.30;83.50;;;;;;5036471;28;20479;-49
2022/07/30 07:17:01;;;;;;;10.43;8.20;;;22.40;81.60;;;;;;5035342;28;20494;-49
2022/07/30 07:19:29;;;;;;;9.33;7.87;;;22.60;81.90;;;;;;5039821;28;20885;-49
2022/07/30 07:21:57;;;;;;;15.40;8.90;;;23.00;80.00;;;;;;5040836;28;20492;-49
2022/07/30 07:24:24;;;;;;;11.33;8.27;;;23.10;78.90;;;;;;5024005;28;20966;-49
2022/07/30 07:26:50;;;;;;;12.20;7.60;;;23.10;79.60;;;;;;5027168;28;20544;-49
2022/07/30 07:29:17;;;;;;;7.00;5.40;;;23.20;78.40;;;;;;5052919;28;20586;-49
2022/07/30 07:31:44;;;;;;;10.70;8.20;;;23.50;78.00;;;;;;5065830;28;20536;-49
2022/07/30 07:34:10;;;;;;;8.50;7.30;;;23.50;78.50;;;;;;5034656;28;21021;-50
2022/07/30 07:36:38;;;;;;;8.93;7.50;;;23.60;79.00;;;;;;5035459;28;20993;-50
2022/07/30 07:39:08;;;;;;;9.30;8.17;;;23.90;77.00;;;;;;5045034;28;20928;-49
2022/07/30 07:41:35;;;;;;;7.90;7.10;;;24.30;75.60;;;;;;5034702;28;20478;-49
2022/07/30 07:44:02;;;;;;;9.50;7.93;;;24.70;75.30;;;;;;5045578;28;20479;-49
2022/07/30 07:46:28;;;;;;;9.00;7.30;;;24.70;75.90;;;;;;5038335;28;20996;-49
2022/07/30 07:48:55;;;;;;;7.73;6.90;;;24.90;75.30;;;;;;5039572;28;20569;-50
2022/07/30 07:51:22;;;;;;;6.53;5.97;;;25.20;73.70;;;;;;5039225;28;20526;-50
2022/07/30 07:53:50;;;;;;;6.93;6.30;;;25.50;72.20;;;;;;5038378;28;20476;-51
2022/07/30 07:56:16;;;;;;;8.63;6.10;;;25.60;72.00;;;;;;5037227;28;20706;-49
2022/07/30 07:58:43;;;;;;;6.47;5.87;;;25.80;71.70;;;;;;5040357;28;20984;-50
2022/07/30 08:01:10;;;;;;;11.20;5.93;;;25.80;70.00;;;;;;5031261;28;20467;-50
2022/07/30 08:03:37;;;;;;;6.47;5.87;;;26.00;70.70;;;;;;5057247;28;20569;-51
2022/07/30 08:06:04;;;;;;;6.53;5.93;;;26.20;69.70;;;;;;5040830;28;20472;-50
2022/07/30 08:08:30;;;;;;;7.07;6.07;;;26.20;69.60;;;;;;5026945;28;20901;-50
2022/07/30 08:10:58;;;;;;;5.87;5.27;;;26.30;68.30;;;;;;5053045;28;20492;-49
2022/07/30 08:13:25;;;;;;;11.50;6.50;;;26.40;68.30;;;;;;5037473;28;20480;-51
2022/07/30 08:15:52;;;;;;;6.00;4.93;;;26.50;67.30;;;;;;5037693;28;20478;-50
2022/07/30 08:18:18;;;;;;;7.60;6.03;;;26.50;66.90;;;;;;5040146;28;20948;-50
2022/07/30 08:20:45;;;;;;;5.23;4.80;;;26.60;67.60;;;;;;5037729;28;20479;-49
2022/07/30 08:23:12;;;;;;;5.43;4.93;;;26.60;67.60;;;;;;5034578;28;20755;-49
2022/07/30 08:25:38;;;;;;;6.10;5.30;;;26.60;67.50;;;;;;5031933;28;20479;-50
2022/07/30 08:28:06;;;;;;;6.30;4.93;;;26.70;66.10;;;;;;5044522;28;20955;-50
2022/07/30 08:30:33;;;;;;;5.57;5.13;;;26.70;66.60;;;;;;5039370;28;20537;-50
2022/07/30 08:33:00;;;;;;;8.57;5.60;;;26.60;66.30;;;;;;5038576;28;20509;-52
2022/07/30 08:35:26;;;;;;;6.30;5.37;;;26.60;65.80;;;;;;5035496;28;20492;-50
2022/07/30 08:37:53;;;;;;;6.00;5.07;;;26.80;65.00;;;;;;5033505;28;20541;-51
2022/07/30 08:40:20;;;;;;;7.97;5.53;;;27.00;64.80;;;;;;5037741;28;20877;-50
2022/07/30 08:42:47;;;;;;;5.40;5.00;;;26.90;64.70;;;;;;5037264;28;20472;-51
2022/07/30 08:45:17;;;;;;;7.10;4.70;;;27.00;64.30;;;;;;5036650;28;20476;-51
2022/07/30 08:47:46;;;;;;;5.30;4.80;;;27.10;64.30;;;;;;5039011;28;20479;-50
2022/07/30 08:50:14;;;;;;;10.87;4.83;;;27.10;63.70;;;;;;5039442;28;20479;-50
2022/07/30 08:52:42;;;;;;;4.50;4.10;;;27.30;63.70;;;;;;5037870;28;20558;-51
2022/07/30 08:55:09;;;;;;;17.70;4.60;;;27.30;64.20;;;;;;5036789;28;20483;-51
2022/07/30 08:57:36;;;;;;;4.40;4.00;;;27.30;61.70;;;;;;5035923;28;20492;-51
2022/07/30 09:00:05;;;;;;;5.70;4.67;;;27.30;61.50;;;;;;5033621;28;21454;-51
2022/07/30 09:02:34;;;;;;;4.90;4.03;;;27.30;61.60;;;;;;5047950;28;20491;-52
2022/07/30 09:05:00;;;;;;;7.70;4.37;;;27.40;61.80;;;;;;5036960;28;20479;-52
2022/07/30 09:07:27;;;;;;;4.97;3.97;;;27.40;61.00;;;;;;5036898;28;20876;-51
2022/07/30 09:09:55;;;;;;;4.50;4.10;;;27.60;61.90;;;;;;5034652;28;20476;-50
2022/07/30 09:12:33;;;;;;;7.13;4.20;;;27.70;61.10;;;;;;5039056;28;20822;-51
2022/07/30 09:15:06;;;;;;;9.10;4.37;;;27.80;61.90;;;;;;5026070;28;20528;-51
2022/07/30 09:17:52;;;;;;;5.20;4.70;;;28.00;61.00;;;;;;5034948;28;20805;-51
2022/07/30 09:20:19;;;;;;;7.50;4.83;;;28.30;60.10;;;;;;5033976;28;20881;-50
2022/07/30 09:22:47;;;;;;;6.10;4.10;;;28.40;60.20;;;;;;5034019;28;20843;-51
2022/07/30 09:25:14;;;;;;;6.80;4.80;;;28.50;59.50;;;;;;5031693;28;20855;-51
2022/07/30 09:27:46;;;;;;;6.10;4.07;;;28.50;60.00;;;;;;5036246;28;20458;-51
2022/07/30 09:30:12;;;;;;;15.83;4.43;;;28.40;59.50;;;;;;5035969;28;20985;-51
2022/07/30 09:32:51;;;;;;;8.10;4.50;;;28.40;60.30;;;;;;5036759;28;20929;-51
2022/07/30 09:35:19;;;;;;;5.60;3.50;;;28.80;61.30;;;;;;5036247;28;20488;-51
2022/07/30 09:37:45;;;;;;;4.07;3.77;;;28.90;59.80;;;;;;5040589;28;20985;-52
2022/07/30 09:40:15;;;;;;;6.33;4.83;;;28.90;59.80;;;;;;5036015;28;21114;-51
2022/07/30 09:42:42;;;;;;;5.40;4.90;;;28.70;58.90;;;;;;5036039;28;20998;-51
2022/07/30 09:45:11;;;;;;;7.33;4.13;;;28.80;60.00;;;;;;5033322;28;20635;-51
2022/07/30 09:47:39;;;;;;;4.77;4.37;;;28.90;59.90;;;;;;5038716;28;20474;-52
2022/07/30 09:50:09;;;;;;;4.80;4.40;;;28.80;59.10;;;;;;5039651;28;20480;-52
2022/07/30 09:52:38;;;;;;;4.57;4.10;;;29.00;59.60;;;;;;5038153;28;20458;-51
2022/07/30 09:55:05;;;;;;;4.83;4.20;;;29.00;60.60;;;;;;5036840;28;20501;-51
2022/07/30 09:57:32;;;;;;;4.30;3.90;;;29.20;59.20;;;;;;5037560;28;20911;-52
2022/07/30 10:00:17;;;;;;;4.33;3.50;;;29.30;58.90;;;;;;5016270;28;20549;-52
2022/07/30 10:02:43;;;;;;;9.40;3.90;;;29.00;57.70;;;;;;5033784;28;20486;-51
2022/07/30 10:05:14;;;;;;;10.70;5.03;;;28.90;58.20;;;;;;5033446;28;21029;-51
2022/07/30 10:07:48;;;;;;;4.10;3.80;;;29.10;58.60;;;;;;5038241;28;20565;-51
2022/07/30 10:10:15;;;;;;;4.40;3.90;;;29.20;57.80;;;;;;5037431;28;20545;-50
2022/07/30 10:12:42;;;;;;;4.17;3.77;;;29.50;58.70;;;;;;5041214;28;21003;-51
2022/07/30 10:15:10;;;;;;;3.73;3.43;;;29.70;58.40;;;;;;5037514;28;20892;-52
2022/07/30 10:17:38;;;;;;;4.53;3.77;;;29.80;56.10;;;;;;5040974;28;20996;-51
2022/07/30 10:20:07;;;;;;;7.70;4.10;;;29.40;56.50;;;;;;5039335;28;20924;-51
2022/07/30 10:22:36;;;;;;;5.60;3.87;;;29.40;57.60;;;;;;5041127;28;20483;-53
2022/07/30 10:25:02;;;;;;;4.30;3.90;;;29.60;58.00;;;;;;5041691;28;20533;-50
2022/07/30 10:27:29;;;;;;;3.63;3.30;;;29.60;57.90;;;;;;5044358;28;21021;-51
2022/07/30 10:29:57;;;;;;;3.53;3.23;;;29.80;57.80;;;;;;5039009;28;20859;-52
2022/07/30 10:32:25;;;;;;;3.67;3.00;;;29.90;58.40;;;;;;5038442;28;20867;-50
2022/07/30 10:34:52;;;;;;;3.30;3.00;;;30.10;56.00;;;;;;5039321;28;20486;-51
2022/07/30 10:37:20;;;;;;;3.30;3.00;;;30.40;55.70;;;;;;5059920;28;20486;-50
2022/07/30 10:39:55;;;;;;;5.03;3.07;;;30.50;55.00;;;;;;5033053;28;20545;-50
2022/07/30 10:42:41;;;;;;;4.50;3.60;;;30.80;55.80;;;;;;5033528;28;20506;-50
2022/07/30 10:45:27;;;;;;;3.00;2.80;;;30.80;54.50;;;;;;5024159;28;20525;-51
2022/07/30 10:47:56;;;;;;;7.90;3.67;;;30.90;51.60;;;;;;5032733;28;20955;-52
2022/07/30 10:50:25;;;;;;;6.37;2.70;;;30.90;52.70;;;;;;5036530;28;20491;-51
2022/07/30 10:52:53;;;;;;;2.43;2.23;;;30.70;51.40;;;;;;5033299;28;20483;-50
2022/07/30 10:55:24;;;;;;;5.97;2.37;;;30.80;52.20;;;;;;5035966;28;20483;-52
2022/07/30 10:58:01;;;;;;;2.40;2.20;;;30.90;52.00;;;;;;5064120;28;20482;-51
2022/07/30 11:00:29;;;;;;;3.47;2.20;;;31.20;52.70;;;;;;5039125;28;20704;-51
2022/07/30 11:03:17;;;;;;;2.60;2.33;;;31.30;52.40;;;;;;5038480;28;20933;-50
2022/07/30 11:05:46;;;;;;;2.40;2.20;;;31.60;52.40;;;;;;5054309;28;20469;-50
2022/07/30 11:08:30;;;;;;;2.57;2.37;;;31.70;52.80;;;;;;5041073;28;20450;-52
2022/07/30 11:10:58;;;;;;;3.83;2.30;;;31.90;49.80;;;;;;5063877;28;20487;-50
2022/07/30 11:13:50;;;;;;;2.77;2.57;;;32.00;50.00;;;;;;5036618;28;20508;-51
2022/07/30 11:16:18;;;;;;;4.60;2.33;;;31.70;48.60;;;;;;5037198;28;20483;-52
2022/07/30 11:19:04;;;;;;;4.73;2.20;;;31.80;51.20;;;;;;5041030;28;20452;-51
2022/07/30 11:21:31;;;;;;;3.77;2.00;;;31.70;49.70;;;;;;5036144;28;20982;-52
2022/07/30 11:23:59;;;;;;;5.30;2.77;;;31.80;50.00;;;;;;5031254;28;20484;-51
2022/07/30 11:26:49;;;;;;;5.60;2.13;;;31.80;48.80;;;;;;5035580;28;20482;-52
2022/07/30 11:29:37;;;;;;;2.43;2.23;;;31.70;48.90;;;;;;5037164;28;20460;-50
2022/07/30 11:32:23;;;;;;;5.57;2.77;;;31.90;49.80;;;;;;5039430;28;20465;-51
2022/07/30 11:34:51;;;;;;;2.80;2.30;;;31.80;49.10;;;;;;5029308;28;20443;-50
2022/07/30 11:37:18;;;;;;;5.70;2.37;;;31.80;48.40;;;;;;5037000;28;20519;-50
2022/07/30 11:40:10;;;;;;;2.83;2.50;;;32.00;49.90;;;;;;5034531;28;20478;-52
2022/07/30 11:42:40;;;;;;;3.90;2.47;;;32.10;49.20;;;;;;5039736;28;20598;-51
2022/07/30 11:45:25;;;;;;;4.47;2.73;;;32.20;49.50;;;;;;5033426;28;20545;-51
2022/07/30 11:47:54;;;;;;;6.50;2.67;;;32.20;47.70;;;;;;5044260;28;20474;-50
2022/07/30 11:50:24;;;;;;;2.90;2.50;;;32.40;49.40;;;;;;5039384;28;20484;-50
2022/07/30 11:52:51;;;;;;;4.30;2.57;;;;;;;;;;5034335;28;20451;-51
2022/07/30 11:55:26;;;;;;;2.27;1.80;;;32.40;47.90;;;;;;5029279;28;20482;-50
2022/07/30 11:57:54;;;;;;;2.70;2.30;;;32.60;48.80;;;;;;5041714;28;20894;-50
2022/07/30 12:00:21;;;;;;;5.40;1.83;;;32.80;48.20;;;;;;5044598;28;21020;-50
2022/07/30 12:02:48;;;;;;;4.27;1.90;;;32.80;48.20;;;;;;5038510;28;20473;-51
2022/07/30 12:05:15;;;;;;;3.10;2.23;;;33.00;47.90;;;;;;5031699;28;20539;-49
2022/07/30 12:07:42;;;;;;;3.43;2.33;;;33.00;47.80;;;;;;5037207;28;20982;-52
2022/07/30 12:10:14;;;;;;;2.10;1.90;;;33.00;47.40;;;;;;5025223;28;20455;-50
2022/07/30 12:12:40;;;;;;;4.70;1.90;;;33.10;46.70;;;;;;5031738;28;20526;-51
2022/07/30 12:15:10;;;;;;;4.90;1.97;;;32.80;46.40;;;;;;5026859;28;20531;-51
2022/07/30 12:17:44;;;;;;;2.10;1.50;;;32.70;46.60;;;;;;5038833;28;21654;-53
2022/07/30 12:20:19;;;;;;;2.17;1.30;;;32.40;46.00;;;;;;5061685;28;20863;-51
2022/07/30 12:22:47;;;;;;;2.10;1.50;;;32.60;46.90;;;;;;5047939;28;20535;-50
2022/07/30 12:25:14;;;;;;;2.20;1.60;;;32.40;46.10;;;;;;5057931;28;20871;-50
2022/07/30 12:27:44;;;;;;;2.07;1.53;;;32.50;47.10;;;;;;5036748;28;20476;-51
2022/07/30 12:30:14;;;;;;;2.40;1.90;;;32.40;46.60;;;;;;5034754;28;20552;-49
2022/07/30 12:32:42;;;;;;;2.00;1.40;;;32.40;46.20;;;;;;5045254;28;20532;-50
2022/07/30 12:35:09;;;;;;;5.63;2.00;;;32.50;46.90;;;;;;5039490;28;20454;-50
2022/07/30 12:37:36;;;;;;;4.80;2.30;;;32.50;48.10;;;;;;5032188;28;20484;-50
2022/07/30 12:40:08;;;;;;;2.37;1.60;;;32.80;48.00;;;;;;5048061;28;20479;-49
2022/07/30 12:42:35;;;;;;;6.60;2.47;;;32.70;45.80;;;;;;5046536;28;20548;-49
2022/07/30 12:45:02;;;;;;;1.90;1.50;;;32.70;46.90;;;;;;5045804;28;20556;-50
2022/07/30 12:47:33;;;;;;;2.20;1.43;;;32.70;47.20;;;;;;5045390;28;20476;-49
2022/07/30 12:50:02;;;;;;;3.23;1.87;;;32.90;46.70;;;;;;5044311;28;20484;-52
2022/07/30 12:52:30;;;;;;;2.30;2.00;;;33.00;48.20;;;;;;5048083;28;21068;-51